createdAt,value
2022-09-09T00:00:18.062Z,9.85
2022-09-09T00:03:04.044Z,8.40
2022-09-09T00:05:39.840Z,8.85
2022-09-09T00:08:12.791Z,8.43
2022-09-09T00:10:42.829Z,7.97
2022-09-09T00:13:25.612Z,8.30
2022-09-09T00:16:05.194Z,7.30
2022-09-09T00:18:57.773Z,8.57
2022-09-09T00:21:37.346Z,6.90
2022-09-09T00:24:26.519Z,7.65
2022-09-09T00:27:01.427Z,8.00
2022-09-09T00:29:34.098Z,7.05
2022-09-09T00:32:13.577Z,7.75
2022-09-09T00:34:53.525Z,7.20
2022-09-09T00:37:23.356Z,7.38
2022-09-09T00:39:53.112Z,7.15
2022-09-09T00:42:26.247Z,8.65
2022-09-09T00:45:18.401Z,10.13
2022-09-09T00:47:54.231Z,7.82
2022-09-09T00:50:50.359Z,7.78
2022-09-09T00:53:29.409Z,8.13
2022-09-09T00:56:15.614Z,8.55
2022-09-09T00:59:15.736Z,9.45
2022-09-09T01:01:42.920Z,8.40
2022-09-09T01:04:17.610Z,8.32
2022-09-09T01:06:53.165Z,8.23
2022-09-09T01:09:33.606Z,8.05
2022-09-09T01:12:09.195Z,7.32
2022-09-09T01:14:36.024Z,8.65
2022-09-09T01:17:09.054Z,6.65
2022-09-09T01:19:56.909Z,8.25
2022-09-09T01:22:32.580Z,7.13
2022-09-09T01:25:17.284Z,7.28
2022-09-09T01:27:46.171Z,7.95
2022-09-09T01:30:14.960Z,8.30
2022-09-09T01:32:55.254Z,8.93
2022-09-09T01:35:28.249Z,9.02
2022-09-09T01:37:55.480Z,7.05
2022-09-09T01:40:22.390Z,8.80
2022-09-09T01:42:49.640Z,7.95
2022-09-09T01:45:16.841Z,7.78
2022-09-09T01:47:44.148Z,8.63
2022-09-09T01:50:14.248Z,8.00
2022-09-09T01:52:41.774Z,8.48
2022-09-09T01:55:09.640Z,9.80
2022-09-09T01:58:00.983Z,8.45
2022-09-09T02:00:29.363Z,8.40
2022-09-09T02:03:09.853Z,8.48
2022-09-09T02:05:42.151Z,9.02
2022-09-09T02:08:12.934Z,9.23
2022-09-09T02:10:56.213Z,8.02
2022-09-09T02:13:23.622Z,9.07
2022-09-09T02:16:08.033Z,8.35
2022-09-09T02:19:01.672Z,9.60
2022-09-09T02:21:31.051Z,9.57
2022-09-09T02:24:01.781Z,8.00
2022-09-09T02:26:29.132Z,8.85
2022-09-09T02:29:00.580Z,8.27
2022-09-09T02:31:27.499Z,9.15
2022-09-09T02:34:01.691Z,8.88
2022-09-09T02:36:34.506Z,8.13
2022-09-09T02:39:02.288Z,8.38
2022-09-09T02:41:33.531Z,8.13
2022-09-09T02:44:00.903Z,10.32
2022-09-09T02:46:53.939Z,8.82
2022-09-09T02:49:50.591Z,8.43
2022-09-09T02:52:23.393Z,9.15
2022-09-09T02:54:55.415Z,8.93
2022-09-09T02:57:28.975Z,8.38
2022-09-09T03:00:02.493Z,8.15
2022-09-09T03:02:29.579Z,9.13
2022-09-09T03:04:56.479Z,8.40
2022-09-09T03:07:23.439Z,12.05
2022-09-09T03:09:50.274Z,9.02
2022-09-09T03:12:17.461Z,8.43
2022-09-09T03:14:46.513Z,8.45
2022-09-09T03:17:13.605Z,8.50
2022-09-09T03:19:40.920Z,8.88
2022-09-09T03:22:09.548Z,7.72
2022-09-09T03:24:36.355Z,9.02
2022-09-09T03:27:03.208Z,8.38
2022-09-09T03:29:30.472Z,8.90
2022-09-09T03:31:57.343Z,8.52
2022-09-09T03:34:24.226Z,8.82
2022-09-09T03:36:51.677Z,8.32
2022-09-09T03:39:18.572Z,9.43
2022-09-09T03:41:46.424Z,10.48
2022-09-09T03:44:13.405Z,9.32
2022-09-09T03:46:40.250Z,8.82
2022-09-09T03:49:07.231Z,9.05
2022-09-09T03:51:37.784Z,8.60
2022-09-09T03:54:06.145Z,8.75
2022-09-09T03:56:33.212Z,9.88
2022-09-09T03:59:00.089Z,8.68
2022-09-09T04:01:28.002Z,9.18
2022-09-09T04:03:59.178Z,8.38
2022-09-09T04:06:27.032Z,8.70
2022-09-09T04:08:54.006Z,9.00
2022-09-09T04:11:20.919Z,8.95
2022-09-09T04:13:47.914Z,9.20
2022-09-09T04:16:15.821Z,9.10
2022-09-09T04:18:43.835Z,10.13
2022-09-09T04:21:13.271Z,8.60
2022-09-09T04:23:40.540Z,9.32
2022-09-09T04:26:07.806Z,8.68
2022-09-09T04:28:37.208Z,9.63
2022-09-09T04:31:10.112Z,9.30
2022-09-09T04:33:40.156Z,8.68
2022-09-09T04:36:09.168Z,9.65
2022-09-09T04:38:36.350Z,9.82
2022-09-09T04:41:03.551Z,9.20
2022-09-09T04:43:31.865Z,8.60
2022-09-09T04:46:00.483Z,9.55
2022-09-09T04:48:28.356Z,9.88
2022-09-09T04:51:00.025Z,9.27
2022-09-09T04:53:27.253Z,12.57
2022-09-09T04:56:02.992Z,9.23
2022-09-09T04:58:30.192Z,10.55
2022-09-09T05:01:14.593Z,9.18
2022-09-09T05:03:41.800Z,10.25
2022-09-09T05:06:11.181Z,8.23
2022-09-09T05:08:43.375Z,10.07
2022-09-09T05:11:27.898Z,9.82
2022-09-09T05:13:55.569Z,9.30
2022-09-09T05:16:24.002Z,9.65
2022-09-09T05:18:54.645Z,9.55
2022-09-09T05:21:24.166Z,8.75
2022-09-09T05:23:52.441Z,8.52
2022-09-09T05:26:21.668Z,9.85
2022-09-09T05:28:48.812Z,8.85
2022-09-09T05:31:18.357Z,10.60
2022-09-09T05:33:47.206Z,9.20
2022-09-09T05:36:16.969Z,9.07
2022-09-09T05:38:44.686Z,9.68
2022-09-09T05:41:12.515Z,8.75
2022-09-09T05:43:40.149Z,8.80
2022-09-09T05:46:11.650Z,9.23
2022-09-09T05:48:43.502Z,8.88
2022-09-09T05:51:13.869Z,9.55
2022-09-09T05:53:40.722Z,9.10
2022-09-09T05:56:11.775Z,9.30
2022-09-09T05:58:39.656Z,9.75
2022-09-09T06:01:14.985Z,8.95
2022-09-09T06:03:44.144Z,8.63
2022-09-09T06:06:16.722Z,8.35
2022-09-09T06:08:45.282Z,8.98
2022-09-09T06:11:15.178Z,8.35
2022-09-09T06:13:43.059Z,9.05
2022-09-09T06:16:14.830Z,8.45
2022-09-09T06:18:43.020Z,8.68
2022-09-09T06:21:42.149Z,8.98
2022-09-09T06:24:09.075Z,6.90
2022-09-09T06:26:38.084Z,8.35
2022-09-09T06:29:05.503Z,8.43
2022-09-09T06:31:35.600Z,7.95
2022-09-09T06:34:03.290Z,7.22
2022-09-09T06:36:32.909Z,7.10
2022-09-09T06:39:00.983Z,7.00
2022-09-09T06:41:30.075Z,7.68
2022-09-09T06:43:57.324Z,6.32
2022-09-09T06:46:29.032Z,6.68
2022-09-09T06:48:58.404Z,7.35
2022-09-09T06:51:35.913Z,7.25
2022-09-09T06:54:04.446Z,7.38
2022-09-09T06:56:36.460Z,8.43
2022-09-09T06:59:06.153Z,7.97
2022-09-09T07:01:35.269Z,7.72
2022-09-09T07:04:04.662Z,8.32
2022-09-09T07:06:34.169Z,7.82
2022-09-09T07:09:05.415Z,8.45
2022-09-09T07:11:35.787Z,8.32
2022-09-09T07:14:02.753Z,8.48
2022-09-09T07:16:30.741Z,7.93
2022-09-09T07:18:58.903Z,8.68
2022-09-09T07:21:31.092Z,9.00
2022-09-09T07:23:58.299Z,8.70
2022-09-09T07:26:28.616Z,9.70
2022-09-09T07:28:57.532Z,8.88
2022-09-09T07:31:27.510Z,9.15
2022-09-09T07:33:54.985Z,8.45
2022-09-09T07:36:32.492Z,9.75
2022-09-09T07:39:11.978Z,8.68
2022-09-09T07:41:47.762Z,9.60
2022-09-09T07:44:22.303Z,10.05
2022-09-09T07:46:49.678Z,8.88
2022-09-09T07:49:16.681Z,10.88
2022-09-09T07:51:46.346Z,9.20
2022-09-09T07:54:15.892Z,10.52
2022-09-09T07:56:43.627Z,10.63
2022-09-09T07:59:11.360Z,11.40
2022-09-09T08:01:47.076Z,9.60
2022-09-09T08:04:20.053Z,10.20
2022-09-09T08:06:50.246Z,11.10
2022-09-09T08:09:17.552Z,9.35
2022-09-09T08:11:45.390Z,11.30
2022-09-09T08:14:13.213Z,10.88
2022-09-09T08:16:43.496Z,11.52
2022-09-09T08:19:10.926Z,11.77
2022-09-09T08:21:41.281Z,11.90
2022-09-09T08:24:11.487Z,11.23
2022-09-09T08:26:43.987Z,12.23
2022-09-09T08:29:12.728Z,12.35
2022-09-09T08:31:43.362Z,11.82
2022-09-09T08:34:11.618Z,13.50
2022-09-09T08:36:43.361Z,12.68
2022-09-09T08:39:11.764Z,12.13
2022-09-09T08:41:53.068Z,13.20
2022-09-09T08:44:19.886Z,13.90
2022-09-09T08:46:49.828Z,12.65
2022-09-09T08:49:36.013Z,13.90
2022-09-09T08:52:07.315Z,13.18
2022-09-09T08:54:51.653Z,12.63
2022-09-09T08:57:29.021Z,13.15
2022-09-09T08:59:57.728Z,12.50
2022-09-09T09:02:42.094Z,12.68
2022-09-09T09:05:38.111Z,13.18
2022-09-09T09:08:26.808Z,12.75
2022-09-09T09:10:58.093Z,14.48
2022-09-09T09:13:44.665Z,13.55
2022-09-09T09:16:36.390Z,13.35
2022-09-09T09:19:03.574Z,10.70
2022-09-09T09:21:49.328Z,12.60
2022-09-09T09:24:21.965Z,11.57
2022-09-09T09:26:49.437Z,13.88
2022-09-09T09:29:18.963Z,13.73
2022-09-09T09:31:55.763Z,12.93
2022-09-09T09:34:24.215Z,13.75
2022-09-09T09:36:59.486Z,13.93
2022-09-09T09:42:20.371Z,14.38
2022-09-09T09:44:50.179Z,15.13
2022-09-09T09:47:22.377Z,14.13
2022-09-09T09:49:57.561Z,14.32
2022-09-09T09:52:30.146Z,14.75
2022-09-09T09:55:05.262Z,14.60
2022-09-09T09:57:35.476Z,13.77
2022-09-09T10:00:24.133Z,15.25
2022-09-09T10:02:53.759Z,15.80
2022-09-09T10:05:27.432Z,14.38
2022-09-09T10:08:13.752Z,16.10
2022-09-09T10:11:08.203Z,14.85
2022-09-09T10:13:47.270Z,14.00
2022-09-09T10:16:27.562Z,14.70
2022-09-09T10:19:17.074Z,15.65
2022-09-09T10:22:21.038Z,15.90
2022-09-09T10:27:17.856Z,15.07
2022-09-09T10:30:11.152Z,14.60
2022-09-09T10:32:39.870Z,15.63
2022-09-09T10:35:25.245Z,15.00
2022-09-09T10:38:11.962Z,14.43
2022-09-09T10:40:54.310Z,14.27
2022-09-09T10:43:36.435Z,14.70
2022-09-09T10:46:10.117Z,13.95
2022-09-09T10:48:44.326Z,14.77
2022-09-09T10:51:29.631Z,15.55
2022-09-09T10:54:18.291Z,16.15
2022-09-09T10:56:51.555Z,15.95
2022-09-09T11:02:07.767Z,15.80
2022-09-09T11:04:37.025Z,13.50
2022-09-09T11:07:12.318Z,15.57
2022-09-09T11:09:56.735Z,14.07
2022-09-09T11:12:26.155Z,16.13
2022-09-09T11:15:19.530Z,16.42
2022-09-09T11:17:56.440Z,15.27
2022-09-09T11:20:26.303Z,15.70
2022-09-09T11:23:14.699Z,13.73
2022-09-09T11:25:46.047Z,15.77
2022-09-09T11:28:37.476Z,15.48
2022-09-09T11:31:23.375Z,15.57
2022-09-09T11:34:09.500Z,15.75
2022-09-09T11:36:39.186Z,16.67
2022-09-09T11:39:31.929Z,16.15
2022-09-09T11:42:13.944Z,15.95
2022-09-09T11:44:42.853Z,15.85
2022-09-09T11:47:27.450Z,14.95
2022-09-09T11:49:55.190Z,15.38
2022-09-09T11:52:21.978Z,16.45
2022-09-09T11:54:51.232Z,15.82
2022-09-09T11:57:32.590Z,15.68
2022-09-09T12:00:00.298Z,15.52
2022-09-09T12:02:32.982Z,15.48
2022-09-09T12:05:22.233Z,15.98
2022-09-09T12:07:54.765Z,16.50
2022-09-09T12:10:33.619Z,15.75
2022-09-09T12:13:32.451Z,16.15
2022-09-09T12:16:06.581Z,18.38
2022-09-09T12:18:33.642Z,15.45
2022-09-09T12:21:19.283Z,15.52
2022-09-09T12:23:53.686Z,14.75
2022-09-09T12:26:38.142Z,18.80
2022-09-09T12:29:13.861Z,15.77
2022-09-09T12:32:08.332Z,16.83
2022-09-09T12:34:45.880Z,17.35
2022-09-09T12:37:21.703Z,15.93
2022-09-09T12:40:28.511Z,15.43
2022-09-09T12:42:59.957Z,17.73
2022-09-09T12:45:29.737Z,20.80
2022-09-09T12:47:59.491Z,15.48
2022-09-09T12:50:32.393Z,16.63
2022-09-09T12:53:03.277Z,17.15
2022-09-09T12:55:34.453Z,16.05
2022-09-09T12:58:06.535Z,20.75
2022-09-09T13:00:35.711Z,18.35
2022-09-09T13:03:15.805Z,17.65
2022-09-09T13:05:42.833Z,17.85
2022-09-09T13:08:14.888Z,17.80
2022-09-09T13:11:02.941Z,18.23
2022-09-09T13:13:42.582Z,17.77
2022-09-09T13:16:26.931Z,18.45
2022-09-09T13:18:54.386Z,18.08
2022-09-09T13:21:31.883Z,18.05
2022-09-09T13:24:04.186Z,17.52
2022-09-09T13:26:31.165Z,17.35
2022-09-09T13:29:19.348Z,18.38
2022-09-09T13:31:47.066Z,16.67
2022-09-09T13:34:31.617Z,19.45
2022-09-09T13:37:06.814Z,16.42
2022-09-09T13:39:36.286Z,18.77
2022-09-09T13:42:04.299Z,17.92
2022-09-09T13:44:39.918Z,17.27
2022-09-09T13:47:33.676Z,17.45
2022-09-09T13:52:38.126Z,16.38
2022-09-09T13:55:05.286Z,17.45
2022-09-09T13:57:32.213Z,20.42
2022-09-09T14:00:05.071Z,19.10
2022-09-09T14:02:32.902Z,17.55
2022-09-09T14:04:59.871Z,19.58
2022-09-09T14:07:26.761Z,18.27
2022-09-09T14:09:53.718Z,18.38
2022-09-09T14:12:21.209Z,18.13
2022-09-09T14:14:48.223Z,20.42
2022-09-09T14:17:16.215Z,19.05
2022-09-09T14:19:43.789Z,19.40
2022-09-09T14:22:10.683Z,18.90
2022-09-09T14:24:37.704Z,18.33
2022-09-09T14:27:04.653Z,18.65
2022-09-09T14:29:31.504Z,19.27
2022-09-09T14:31:58.360Z,19.05
2022-09-09T14:34:25.269Z,20.58
2022-09-09T14:36:52.451Z,24.92
2022-09-09T14:39:19.431Z,22.48
2022-09-09T14:41:46.835Z,21.13
2022-09-09T14:44:13.643Z,20.13
2022-09-09T14:46:40.570Z,19.85
2022-09-09T14:49:07.441Z,26.98
2022-09-09T14:51:35.211Z,20.15
2022-09-09T14:54:03.280Z,22.90
2022-09-09T14:56:32.729Z,23.13
2022-09-09T14:59:01.861Z,19.85
2022-09-09T15:01:30.443Z,19.92
2022-09-09T15:03:59.135Z,23.55
2022-09-09T15:06:28.491Z,21.35
2022-09-09T15:08:58.752Z,22.67
2022-09-09T15:11:28.883Z,24.15
2022-09-09T15:13:55.907Z,21.10
2022-09-09T15:16:25.497Z,21.52
2022-09-09T15:18:55.258Z,21.65
2022-09-09T15:21:25.329Z,20.77
2022-09-09T15:23:52.896Z,20.30
2022-09-09T15:26:20.393Z,21.48
2022-09-09T15:28:48.421Z,21.13
2022-09-09T15:31:21.274Z,21.23
2022-09-09T15:33:49.187Z,20.55
2022-09-09T15:36:18.829Z,25.38
2022-09-09T15:38:46.444Z,21.77
2022-09-09T15:41:17.430Z,21.33
2022-09-09T15:43:46.919Z,21.75
2022-09-09T15:46:33.268Z,20.85
2022-09-09T15:49:12.535Z,21.83
2022-09-09T15:51:43.491Z,20.52
2022-09-09T15:54:20.863Z,20.50
2022-09-09T15:56:51.175Z,22.73
2022-09-09T15:59:18.236Z,21.08
2022-09-09T16:01:45.780Z,22.85
2022-09-09T16:04:13.043Z,21.88
2022-09-09T16:06:40.290Z,20.77
2022-09-09T16:09:08.423Z,22.25
2022-09-09T16:11:37.853Z,24.67
2022-09-09T16:14:06.455Z,26.52
2022-09-09T16:16:34.378Z,25.35
2022-09-09T16:19:05.369Z,24.35
2022-09-09T16:21:36.147Z,26.02
2022-09-09T16:24:04.963Z,26.00
2022-09-09T16:26:34.561Z,24.92
2022-09-09T16:29:02.383Z,26.08
2022-09-09T16:31:30.804Z,26.25
2022-09-09T16:33:58.212Z,24.90
2022-09-09T16:36:31.414Z,24.77
2022-09-09T16:41:28.827Z,25.83
2022-09-09T16:44:01.431Z,26.45
2022-09-09T16:46:29.963Z,26.23
2022-09-09T16:49:01.447Z,25.55
2022-09-09T16:51:34.411Z,26.40
2022-09-09T16:54:03.567Z,27.15
2022-09-09T16:56:35.331Z,31.73
2022-09-09T16:59:04.364Z,29.73
2022-09-09T17:01:33.981Z,32.10
2022-09-09T17:04:03.851Z,33.40
2022-09-09T17:06:33.567Z,32.70
2022-09-09T17:09:02.736Z,35.28
2022-09-09T17:11:30.170Z,35.33
2022-09-09T17:13:59.167Z,34.72
2022-09-09T17:16:28.774Z,30.33
2022-09-09T17:18:57.079Z,33.33
2022-09-09T17:21:26.509Z,29.25
2022-09-09T17:23:55.106Z,29.95
2022-09-09T17:26:24.325Z,31.52
2022-09-09T17:28:52.621Z,32.63
2022-09-09T17:31:21.982Z,29.33
2022-09-09T17:33:53.579Z,26.90
2022-09-09T17:36:32.527Z,26.52
2022-09-09T17:39:01.175Z,28.90
2022-09-09T17:41:36.942Z,28.58
2022-09-09T17:44:05.018Z,28.05
2022-09-09T17:46:36.114Z,28.20
2022-09-09T17:49:06.043Z,29.70
2022-09-09T17:51:34.546Z,30.83
2022-09-09T17:54:05.134Z,28.00
2022-09-09T17:56:33.454Z,25.98
2022-09-09T17:59:01.979Z,26.27
2022-09-09T18:01:31.618Z,24.25
2022-09-09T18:04:03.512Z,24.10
2022-09-09T18:06:35.492Z,24.63
2022-09-09T18:09:05.753Z,21.38
2022-09-09T18:11:43.044Z,19.92
2022-09-09T18:14:16.034Z,21.70
2022-09-09T18:16:42.996Z,20.63
2022-09-09T18:19:15.242Z,17.83
2022-09-09T18:21:44.682Z,19.50
2022-09-09T18:24:13.000Z,18.42
2022-09-09T18:26:41.115Z,17.67
2022-09-09T18:29:11.261Z,18.13
2022-09-09T18:31:38.693Z,18.88
2022-09-09T18:34:07.513Z,18.75
2022-09-09T18:36:40.690Z,19.15
2022-09-09T18:39:08.842Z,19.05
2022-09-09T18:41:44.846Z,18.70
2022-09-09T18:44:16.227Z,17.70
2022-09-09T18:46:44.032Z,18.25
2022-09-09T18:49:11.881Z,18.45
2022-09-09T18:51:41.261Z,17.30
2022-09-09T18:54:11.941Z,16.98
2022-09-09T18:56:39.418Z,18.48
2022-09-09T18:59:08.752Z,19.65
2022-09-09T19:01:36.493Z,20.67
2022-09-09T19:04:06.272Z,22.30
2022-09-09T19:06:37.428Z,20.27
2022-09-09T19:09:05.692Z,19.13
2022-09-09T19:11:33.583Z,20.52
2022-09-09T19:14:03.517Z,21.83
2022-09-09T19:16:33.140Z,21.20
2022-09-09T19:19:01.876Z,20.20
2022-09-09T19:21:32.139Z,18.85
2022-09-09T19:24:06.684Z,21.60
2022-09-09T19:26:40.774Z,20.27
2022-09-09T19:29:10.276Z,21.83
2022-09-09T19:31:38.057Z,23.10
2022-09-09T19:34:05.396Z,21.95
2022-09-09T19:36:32.629Z,20.70
2022-09-09T19:39:00.447Z,21.73
2022-09-09T19:41:28.386Z,20.48
2022-09-09T19:44:01.825Z,18.85
2022-09-09T19:46:34.341Z,18.25
2022-09-09T19:49:02.032Z,17.70
2022-09-09T19:51:30.565Z,16.20
2022-09-09T19:54:02.867Z,15.10
2022-09-09T19:56:30.727Z,15.18
2022-09-09T19:58:57.839Z,15.68
2022-09-09T20:01:45.247Z,15.88
2022-09-09T20:04:13.301Z,16.67
2022-09-09T20:06:42.040Z,15.50
2022-09-09T20:09:14.541Z,15.20
2022-09-09T20:11:42.081Z,14.52
2022-09-09T20:14:09.026Z,14.18
2022-09-09T20:16:36.162Z,14.55
2022-09-09T20:19:05.528Z,14.27
2022-09-09T20:21:38.744Z,14.45
2022-09-09T20:26:37.540Z,14.52
2022-09-09T20:29:10.511Z,16.20
2022-09-09T20:31:41.025Z,13.68
2022-09-09T20:34:11.417Z,13.57
2022-09-09T20:36:39.423Z,14.48
2022-09-09T20:39:10.694Z,14.00
2022-09-09T20:41:39.539Z,14.75
2022-09-09T20:44:12.317Z,13.13
2022-09-09T20:46:41.431Z,24.90
2022-09-09T20:49:10.776Z,15.13
2022-09-09T20:51:38.467Z,14.50
2022-09-09T20:54:09.750Z,15.13
2022-09-09T20:56:40.101Z,15.20
2022-09-09T20:59:11.490Z,15.60
2022-09-09T21:01:39.245Z,16.30
2022-09-09T21:04:08.065Z,16.63
2022-09-09T21:06:35.150Z,15.80
2022-09-09T21:09:02.789Z,17.60
2022-09-09T21:11:29.614Z,17.92
2022-09-09T21:13:56.576Z,18.83
2022-09-09T21:16:23.401Z,17.58
2022-09-09T21:18:50.582Z,17.05
2022-09-09T21:21:21.520Z,16.80
2022-09-09T21:23:49.416Z,14.00
2022-09-09T21:26:18.219Z,16.20
2022-09-09T21:28:45.218Z,16.05
2022-09-09T21:31:17.028Z,17.02
2022-09-09T21:33:44.315Z,15.40
2022-09-09T21:36:13.149Z,16.58
2022-09-09T21:38:40.791Z,15.10
2022-09-09T21:41:13.433Z,14.60
2022-09-09T21:43:42.070Z,14.23
2022-09-09T21:46:11.536Z,13.38
2022-09-09T21:48:38.900Z,12.55
2022-09-09T21:51:08.314Z,13.70
2022-09-09T21:53:35.739Z,11.73
2022-09-09T21:56:06.261Z,12.75
2022-09-09T21:58:34.468Z,11.68
2022-09-09T22:01:01.530Z,12.32
2022-09-09T22:03:28.498Z,10.48
2022-09-09T22:05:55.367Z,11.13
2022-09-09T22:08:22.239Z,10.48
2022-09-09T22:10:49.223Z,9.55
2022-09-09T22:13:17.475Z,8.88
2022-09-09T22:15:46.243Z,9.63
2022-09-09T22:18:16.191Z,10.02
2022-09-09T22:20:45.105Z,10.00
2022-09-09T22:23:13.452Z,10.00
2022-09-09T22:25:40.930Z,9.35
2022-09-09T22:28:09.544Z,9.25
2022-09-09T22:30:36.461Z,9.48
2022-09-09T22:33:03.935Z,8.85
2022-09-09T22:35:30.750Z,8.90
2022-09-09T22:37:57.899Z,9.23
2022-09-09T22:40:24.798Z,9.98
2022-09-09T22:42:53.142Z,9.57
2022-09-09T22:45:21.591Z,9.50
2022-09-09T22:47:48.549Z,8.52
2022-09-09T22:50:15.533Z,10.85
2022-09-09T22:52:42.396Z,12.55
2022-09-09T22:55:09.849Z,12.90
2022-09-09T22:57:37.486Z,12.98
2022-09-09T23:00:09.112Z,11.68
2022-09-09T23:02:40.850Z,13.23
2022-09-09T23:05:08.839Z,12.68
2022-09-09T23:07:36.765Z,12.93
2022-09-09T23:10:07.006Z,12.02
2022-09-09T23:12:34.418Z,12.13
2022-09-09T23:15:03.092Z,11.93
2022-09-09T23:17:31.321Z,12.02
2022-09-09T23:19:58.372Z,11.75
2022-09-09T23:22:26.239Z,12.73
2022-09-09T23:24:54.084Z,13.10
2022-09-09T23:27:24.221Z,13.10
2022-09-09T23:29:51.818Z,12.00
2022-09-09T23:32:19.109Z,11.82
2022-09-09T23:34:48.572Z,10.40
2022-09-09T23:37:16.154Z,10.48
2022-09-09T23:39:43.587Z,11.35
2022-09-09T23:42:11.705Z,11.10
2022-09-09T23:44:39.606Z,10.52
2022-09-09T23:47:07.779Z,12.73
2022-09-09T23:49:36.070Z,10.27
2022-09-09T23:52:05.443Z,12.13
2022-09-09T23:54:34.166Z,12.55
2022-09-09T23:57:03.083Z,11.32
2022-09-09T23:59:34.983Z,11.38
